Time;durP1;ratioP1;P1;durP2;ratioP2;P2;SDS_P1;SDS_P2;PMS_P1;PMS_P2;Temp;Humidity;BMP_temperature;BMP_pressure;BME280_temperature;BME280_humidity;BME280_pressure;Samples;Min_cycle;Max_cycle;Signal;HPM_P1;HPM_P2
2022/05/14 00:01:27;;;;;;;13.93;5.97;;;19.20;99.90;;;;;;5046378;28;20033;-73
2022/05/14 00:03:54;;;;;;;13.20;5.25;;;19.10;99.90;;;;;;5022414;28;20579;-73
2022/05/14 00:06:23;;;;;;;14.00;5.30;;;19.10;99.90;;;;;;5020938;28;20052;-73
2022/05/14 00:08:50;;;;;;;12.63;5.32;;;19.00;99.90;;;;;;5019455;28;20069;-73
2022/05/14 00:14:03;;;;;;;11.07;5.65;;;19.00;99.90;;;;;;5011342;28;20057;-73
2022/05/14 00:16:32;;;;;;;12.93;5.47;;;18.90;99.90;;;;;;5015829;28;20040;-74
2022/05/14 00:19:00;;;;;;;12.25;5.88;;;19.00;99.90;;;;;;5022155;28;20133;-73
2022/05/14 00:21:27;;;;;;;11.90;4.80;;;19.00;99.90;;;;;;5039999;28;20176;-73
2022/05/14 00:23:54;;;;;;;11.52;5.13;;;18.90;99.90;;;;;;5026528;28;20124;-74
2022/05/14 00:26:21;;;;;;;10.40;4.80;;;18.80;99.90;;;;;;5047871;28;20040;-73
2022/05/14 00:28:47;;;;;;;12.63;5.13;;;18.80;99.90;;;;;;5013738;28;20168;-73
2022/05/14 00:31:14;;;;;;;15.80;5.35;;;18.70;99.90;;;;;;5032091;28;20053;-74
2022/05/14 00:33:39;;;;;;;12.88;5.45;;;18.70;99.90;;;;;;5021777;28;20034;-74
2022/05/14 00:36:06;;;;;;;12.30;5.18;;;18.70;99.90;;;;;;4982639;28;20055;-72
2022/05/14 00:38:34;;;;;;;13.35;6.57;;;18.70;99.90;;;;;;5021537;28;20505;-73
2022/05/14 00:41:05;;;;;;;14.68;6.60;;;18.70;99.90;;;;;;5020545;28;20041;-72
2022/05/14 00:43:33;;;;;;;10.45;5.43;;;18.70;99.90;;;;;;5031138;28;20045;-74
2022/05/14 00:46:08;;;;;;;15.18;5.55;;;18.70;99.90;;;;;;5023933;28;20080;-72
2022/05/14 00:48:39;;;;;;;12.32;5.40;;;18.70;99.90;;;;;;5023963;28;20405;-72
2022/05/14 00:51:07;;;;;;;15.07;5.20;;;18.70;99.90;;;;;;5019032;28;20037;-73
2022/05/14 00:53:40;;;;;;;9.68;4.85;;;18.80;99.90;;;;;;5021288;28;20137;-72
2022/05/14 00:56:11;;;;;;;20.92;6.20;;;18.70;99.90;;;;;;5050698;28;20080;-74
2022/05/14 00:58:52;;;;;;;11.05;5.45;;;18.70;99.90;;;;;;5018020;28;20038;-74
2022/05/14 01:01:18;;;;;;;10.90;3.92;;;18.70;99.90;;;;;;5025271;28;20055;-73
2022/05/14 01:03:46;;;;;;;11.43;4.13;;;18.70;99.90;;;;;;5023238;28;20443;-74
2022/05/14 01:06:16;;;;;;;9.43;4.22;;;18.70;99.90;;;;;;5031717;28;20077;-72
2022/05/14 01:08:43;;;;;;;10.05;3.72;;;18.60;99.90;;;;;;5048641;28;20030;-73
2022/05/14 01:11:11;;;;;;;13.02;4.20;;;18.60;99.90;;;;;;5049425;28;20073;-72
2022/05/14 01:13:37;;;;;;;9.95;3.50;;;18.60;99.90;;;;;;5023099;28;20534;-74
2022/05/14 01:16:04;;;;;;;9.20;3.20;;;18.60;99.90;;;;;;5049482;28;20100;-73
2022/05/14 01:18:34;;;;;;;16.10;3.83;;;18.60;99.60;;;;;;5052349;28;20386;-73
2022/05/14 01:21:05;;;;;;;10.05;3.38;;;18.50;99.40;;;;;;5019931;28;20042;-74
2022/05/14 01:26:30;;;;;;;14.23;4.15;;;18.60;99.60;;;;;;5018161;28;20107;-73
2022/05/14 01:29:07;;;;;;;12.95;4.82;;;18.60;99.90;;;;;;5022005;28;20046;-74
2022/05/14 01:31:35;;;;;;;15.02;4.93;;;18.50;99.90;;;;;;5018860;28;20042;-73
2022/05/14 01:34:05;;;;;;;13.30;4.50;;;18.60;99.90;;;;;;5017164;28;20057;-74
2022/05/14 01:36:35;;;;;;;12.95;5.40;;;18.50;99.90;;;;;;5016588;28;20057;-74
2022/05/14 01:39:02;;;;;;;12.13;5.18;;;18.60;99.90;;;;;;5021776;28;20064;-74
2022/05/14 01:41:29;;;;;;;10.75;4.15;;;18.50;99.90;;;;;;5018293;28;20085;-72
2022/05/14 01:43:56;;;;;;;13.52;4.63;;;18.50;99.90;;;;;;5017256;28;20033;-73
2022/05/14 01:46:22;;;;;;;13.40;4.63;;;18.50;99.90;;;;;;5046564;28;20040;-73
2022/05/14 01:48:49;;;;;;;14.90;4.47;;;18.50;99.90;;;;;;5024284;28;20056;-73
2022/05/14 01:51:16;;;;;;;10.82;4.65;;;18.50;99.90;;;;;;5014249;28;20044;-73
2022/05/14 01:53:44;;;;;;;12.00;5.43;;;18.40;99.90;;;;;;5017681;28;20489;-73
2022/05/14 01:56:11;;;;;;;11.25;5.10;;;18.40;99.90;;;;;;5021615;28;20144;-72
2022/05/14 01:58:37;;;;;;;10.50;5.38;;;18.40;99.90;;;;;;5055135;28;20090;-73
2022/05/14 02:01:18;;;;;;;10.10;4.72;;;18.40;99.90;;;;;;5022484;28;20033;-73
2022/05/14 02:03:51;;;;;;;11.05;4.80;;;18.40;99.90;;;;;;5020604;28;20121;-74
2022/05/14 02:06:18;;;;;;;14.50;4.47;;;18.40;99.90;;;;;;5008509;28;20050;-74
2022/05/14 02:08:45;;;;;;;10.70;4.57;;;18.40;99.90;;;;;;5016359;28;20034;-72
2022/05/14 02:11:13;;;;;;;10.02;4.63;;;18.40;99.90;;;;;;4991029;28;20104;-72
2022/05/14 02:13:40;;;;;;;13.95;4.57;;;18.40;99.90;;;;;;5017336;28;20136;-74
2022/05/14 02:16:08;;;;;;;11.23;4.18;;;18.40;99.90;;;;;;5010713;28;20125;-74
2022/05/14 02:18:35;;;;;;;17.33;4.95;;;18.40;99.90;;;;;;5035862;28;20030;-73
2022/05/14 02:21:02;;;;;;;14.50;4.07;;;18.40;99.90;;;;;;5044329;28;20037;-72
2022/05/14 02:23:28;;;;;;;11.55;4.20;;;18.30;99.90;;;;;;5029668;28;20030;-73
2022/05/14 02:25:54;;;;;;;12.18;3.85;;;18.30;99.90;;;;;;5013743;28;20113;-73
2022/05/14 02:28:20;;;;;;;7.93;3.90;;;18.30;99.90;;;;;;5013487;28;20069;-72
2022/05/14 02:30:46;;;;;;;11.15;3.47;;;18.20;99.90;;;;;;5052879;28;20032;-73
2022/05/14 02:33:13;;;;;;;8.30;3.35;;;18.20;99.90;;;;;;5014607;28;20054;-74
2022/05/14 02:35:39;;;;;;;7.25;3.08;;;18.20;99.80;;;;;;5024878;28;20033;-73
2022/05/14 02:38:06;;;;;;;10.25;2.90;;;18.20;99.30;;;;;;5049350;28;20705;-73
2022/05/14 02:40:32;;;;;;;9.90;2.78;;;18.20;99.40;;;;;;5022418;28;20041;-72
2022/05/14 02:42:59;;;;;;;8.85;2.83;;;18.10;99.30;;;;;;5024510;28;20037;-73
2022/05/14 02:45:25;;;;;;;8.98;3.47;;;18.20;99.40;;;;;;5020779;28;20041;-73
2022/05/14 02:47:51;;;;;;;7.43;2.85;;;18.20;99.30;;;;;;5020109;28;20053;-72
2022/05/14 02:50:18;;;;;;;10.50;2.40;;;18.30;98.40;;;;;;5043547;28;20040;-72
2022/05/14 02:52:44;;;;;;;6.57;2.60;;;18.40;97.80;;;;;;5047192;28;20045;-73
2022/05/14 02:55:11;;;;;;;9.68;2.55;;;18.50;97.20;;;;;;5048333;28;20401;-73
2022/05/14 02:57:39;;;;;;;8.15;2.70;;;18.50;96.90;;;;;;5053649;28;20119;-72
2022/05/14 03:00:08;;;;;;;10.05;2.80;;;18.50;96.60;;;;;;5018688;28;20053;-73
2022/05/14 03:02:36;;;;;;;3.65;1.75;;;18.70;96.10;;;;;;5050688;28;20080;-73
2022/05/14 03:05:03;;;;;;;7.63;2.10;;;18.70;95.90;;;;;;5018010;28;20394;-73
2022/05/14 03:07:29;;;;;;;7.30;2.35;;;18.70;95.70;;;;;;5024922;28;20044;-73
2022/05/14 03:09:55;;;;;;;5.20;2.10;;;18.80;95.40;;;;;;5025703;28;20034;-73
2022/05/14 03:12:22;;;;;;;11.30;2.60;;;18.80;95.50;;;;;;5028542;28;20063;-73
2022/05/14 03:14:49;;;;;;;7.88;2.47;;;18.80;95.40;;;;;;5051194;28;20038;-74
2022/05/14 03:17:16;;;;;;;5.47;2.00;;;18.80;95.30;;;;;;5047554;28;20050;-73
2022/05/14 03:19:42;;;;;;;6.85;2.40;;;18.80;95.10;;;;;;5017179;28;20033;-74
2022/05/14 03:22:09;;;;;;;6.70;2.20;;;18.90;95.00;;;;;;5018672;28;20034;-73
2022/05/14 03:24:36;;;;;;;8.15;2.70;;;18.80;95.00;;;;;;5015425;28;20041;-72
2022/05/14 03:27:06;;;;;;;6.05;2.03;;;18.70;95.10;;;;;;5024633;28;20060;-73
2022/05/14 03:29:34;;;;;;;8.23;3.50;;;18.70;95.20;;;;;;5047500;28;20030;-72
2022/05/14 03:32:00;;;;;;;10.90;2.65;;;18.70;95.60;;;;;;5021475;28;20041;-73
2022/05/14 03:34:27;;;;;;;5.60;2.33;;;18.60;95.70;;;;;;5053541;28;20484;-74
2022/05/14 03:36:54;;;;;;;5.65;2.30;;;18.50;95.70;;;;;;5025287;28;20045;-73
2022/05/14 03:39:20;;;;;;;8.82;4.40;;;18.50;96.10;;;;;;5016873;28;20127;-74
2022/05/14 03:41:47;;;;;;;10.35;3.33;;;18.50;95.90;;;;;;5019835;28;20037;-73
2022/05/14 03:44:14;;;;;;;9.13;3.15;;;18.50;96.20;;;;;;5019767;28;20068;-73
2022/05/14 03:46:42;;;;;;;9.05;3.17;;;18.50;96.30;;;;;;5027897;28;20026;-73
2022/05/14 03:49:09;;;;;;;10.05;3.00;;;18.50;96.40;;;;;;5016324;28;20092;-73
2022/05/14 03:51:36;;;;;;;8.55;3.15;;;18.50;96.40;;;;;;5014723;28;20509;-73
2022/05/14 03:54:04;;;;;;;7.47;2.60;;;18.40;96.40;;;;;;5018425;28;20045;-73
2022/05/14 03:56:31;;;;;;;6.75;2.75;;;18.40;95.90;;;;;;5019831;28;20062;-73
2022/05/14 03:58:58;;;;;;;5.97;2.15;;;18.40;96.10;;;;;;5020403;28;20029;-73
2022/05/14 04:01:23;;;;;;;6.90;2.30;;;18.40;96.10;;;;;;5045401;28;20113;-74
2022/05/14 04:03:49;;;;;;;8.40;2.55;;;18.40;95.90;;;;;;5015381;28;20090;-74
2022/05/14 04:06:17;;;;;;;7.03;2.38;;;18.40;95.80;;;;;;5016377;28;20030;-74
2022/05/14 04:08:43;;;;;;;7.63;1.88;;;18.40;95.50;;;;;;5019141;28;20032;-73
2022/05/14 04:11:09;;;;;;;8.40;1.95;;;18.40;94.60;;;;;;5042367;28;20038;-74
2022/05/14 04:13:36;;;;;;;5.90;2.05;;;18.30;94.10;;;;;;5018903;28;20041;-74
2022/05/14 04:16:02;;;;;;;9.82;2.20;;;18.30;93.70;;;;;;5019891;28;20124;-74
2022/05/14 04:18:28;;;;;;;23.00;3.28;;;18.40;94.20;;;;;;5020268;28;20436;-74
2022/05/14 04:20:56;;;;;;;8.85;2.47;;;18.30;94.10;;;;;;5016999;28;20413;-74
2022/05/14 04:23:24;;;;;;;11.80;2.42;;;18.30;94.40;;;;;;5013466;28;20049;-73
2022/05/14 04:25:51;;;;;;;6.05;2.47;;;18.30;94.50;;;;;;5023405;28;20037;-74
2022/05/14 04:28:20;;;;;;;6.22;2.50;;;18.20;94.60;;;;;;5049586;28;20041;-75
2022/05/14 04:30:48;;;;;;;7.60;3.35;;;18.10;94.30;;;;;;5051103;28;20059;-74
2022/05/14 04:33:17;;;;;;;5.80;2.10;;;18.20;94.50;;;;;;5048660;28;20048;-73
2022/05/14 04:35:44;;;;;;;10.38;3.15;;;18.20;94.30;;;;;;5046794;28;20605;-73
2022/05/14 04:38:09;;;;;;;12.45;4.05;;;18.30;94.30;;;;;;5016108;28;20049;-73
2022/05/14 04:40:37;;;;;;;11.77;5.07;;;18.30;94.40;;;;;;5017962;28;20117;-73
2022/05/14 04:43:09;;;;;;;8.98;4.10;;;18.30;94.40;;;;;;5046610;28;20038;-74
2022/05/14 04:45:37;;;;;;;9.25;2.70;;;18.40;94.40;;;;;;5050602;28;20054;-73
2022/05/14 04:48:04;;;;;;;8.80;2.80;;;18.30;94.20;;;;;;5016287;28;20045;-73
2022/05/14 04:50:31;;;;;;;10.10;2.88;;;18.30;94.30;;;;;;5017545;28;20046;-74
2022/05/14 04:52:57;;;;;;;8.77;3.72;;;18.40;94.20;;;;;;5049062;28;20113;-73
2022/05/14 04:55:23;;;;;;;6.88;2.80;;;18.40;94.20;;;;;;5025715;28;20596;-73
2022/05/14 04:57:49;;;;;;;6.90;3.30;;;18.30;94.20;;;;;;5021354;28;20034;-73
2022/05/14 05:00:16;;;;;;;8.43;2.83;;;18.30;94.30;;;;;;5047795;28;20065;-74
2022/05/14 05:05:29;;;;;;;7.78;2.80;;;18.40;94.30;;;;;;5014869;28;20112;-74
2022/05/14 05:07:55;;;;;;;6.28;2.60;;;18.40;94.40;;;;;;5053736;28;20069;-74
2022/05/14 05:10:22;;;;;;;6.95;2.35;;;18.40;94.40;;;;;;5039278;28;20043;-74
2022/05/14 05:12:49;;;;;;;7.00;2.55;;;18.50;94.60;;;;;;5011607;28;20091;-74
2022/05/14 05:15:16;;;;;;;8.43;3.30;;;18.50;94.80;;;;;;5016673;28;20120;-74
2022/05/14 05:17:42;;;;;;;7.85;2.83;;;18.50;95.50;;;;;;5021767;28;20092;-74
2022/05/14 05:20:09;;;;;;;6.93;3.25;;;18.60;95.90;;;;;;5021856;28;20034;-74
2022/05/14 05:22:37;;;;;;;8.80;3.78;;;18.60;95.90;;;;;;5020902;28;20125;-73
2022/05/14 05:25:04;;;;;;;9.98;4.57;;;18.60;95.80;;;;;;5019237;28;20740;-73
2022/05/14 05:27:30;;;;;;;9.25;4.13;;;18.70;96.90;;;;;;5023112;28;20048;-73
2022/05/14 05:29:56;;;;;;;8.70;4.03;;;18.70;97.10;;;;;;5028016;28;20112;-74
2022/05/14 05:32:23;;;;;;;9.23;4.15;;;18.80;97.20;;;;;;5048960;28;20092;-75
2022/05/14 05:34:49;;;;;;;11.68;4.45;;;18.80;97.30;;;;;;5049152;28;20061;-74
2022/05/14 05:37:15;;;;;;;8.65;3.85;;;18.80;97.10;;;;;;5036984;28;20394;-73
2022/05/14 05:39:41;;;;;;;9.80;3.70;;;18.90;97.10;;;;;;5048509;28;20083;-73
2022/05/14 05:42:07;;;;;;;8.93;3.30;;;18.90;97.10;;;;;;5053860;28;20418;-73
2022/05/14 05:44:34;;;;;;;12.40;4.00;;;19.00;97.00;;;;;;5017004;28;20080;-74
2022/05/14 05:47:06;;;;;;;9.05;3.67;;;19.10;96.90;;;;;;5021378;28;20046;-73
2022/05/14 05:49:33;;;;;;;9.57;3.88;;;19.10;97.00;;;;;;5017382;28;20037;-74
2022/05/14 05:51:59;;;;;;;8.82;3.83;;;19.20;97.00;;;;;;5026702;28;20052;-74
2022/05/14 05:57:10;;;;;;;10.20;3.80;;;19.40;97.20;;;;;;5014872;28;20052;-73
2022/05/14 05:59:36;;;;;;;8.27;3.88;;;19.50;96.90;;;;;;5018167;28;20034;-73
2022/05/14 06:02:03;;;;;;;7.47;3.30;;;19.50;96.80;;;;;;5022032;28;20511;-75
2022/05/14 06:04:29;;;;;;;7.75;3.00;;;19.70;96.30;;;;;;5021616;28;20044;-73
2022/05/14 06:06:56;;;;;;;14.85;3.33;;;19.70;96.10;;;;;;5018215;28;20041;-75
2022/05/14 06:09:25;;;;;;;9.77;3.05;;;19.80;95.70;;;;;;5020152;28;20072;-73
2022/05/14 06:11:51;;;;;;;6.88;2.78;;;19.90;95.50;;;;;;5048357;28;20038;-74
2022/05/14 06:14:18;;;;;;;7.53;2.80;;;20.00;95.20;;;;;;5017280;28;20095;-74
2022/05/14 06:16:45;;;;;;;11.00;3.40;;;20.10;95.00;;;;;;5056479;28;20045;-73
2022/05/14 06:19:11;;;;;;;8.52;2.80;;;20.20;94.80;;;;;;5016082;28;20462;-75
2022/05/14 06:21:38;;;;;;;9.98;3.08;;;20.30;94.70;;;;;;5018507;28;20545;-74
2022/05/14 06:24:06;;;;;;;8.68;3.03;;;20.40;94.70;;;;;;5018294;28;20103;-75
2022/05/14 06:26:32;;;;;;;10.73;3.72;;;20.50;94.60;;;;;;5023774;28;20034;-75
2022/05/14 06:28:59;;;;;;;7.55;2.78;;;20.50;94.60;;;;;;5019381;28;20111;-74
2022/05/14 06:31:26;;;;;;;7.50;3.17;;;20.60;94.50;;;;;;5051316;28;20398;-74
2022/05/14 06:33:53;;;;;;;14.27;3.65;;;20.70;94.50;;;;;;5022894;28;20505;-74
2022/05/14 06:36:19;;;;;;;9.25;3.38;;;20.80;94.40;;;;;;5012591;28;20517;-74
2022/05/14 06:38:45;;;;;;;8.93;3.30;;;20.90;94.50;;;;;;5041876;28;20045;-74
2022/05/14 06:41:13;;;;;;;10.90;3.90;;;21.00;94.90;;;;;;5048363;28;20081;-74
2022/05/14 06:43:40;;;;;;;11.07;3.53;;;21.10;94.60;;;;;;5051230;28;20034;-73
2022/05/14 06:46:06;;;;;;;17.80;3.95;;;21.10;94.40;;;;;;5019978;28;20041;-73
2022/05/14 06:48:33;;;;;;;9.77;4.32;;;21.20;94.20;;;;;;5049790;28;20116;-74
2022/05/14 06:51:05;;;;;;;11.48;4.22;;;21.30;94.50;;;;;;5025408;28;20037;-73
2022/05/14 06:53:35;;;;;;;14.30;4.45;;;21.30;94.60;;;;;;5023567;28;20114;-74
2022/05/14 06:56:01;;;;;;;11.45;4.50;;;21.40;94.70;;;;;;5020562;28;20041;-73
2022/05/14 06:58:39;;;;;;;11.38;4.10;;;21.40;94.60;;;;;;5021777;28;20379;-74
2022/05/14 07:01:06;;;;;;;12.95;3.13;;;21.60;94.20;;;;;;5050994;28;20037;-74
2022/05/14 07:06:38;;;;;;;11.00;3.85;;;21.70;93.50;;;;;;5022283;28;20670;-74
2022/05/14 07:09:11;;;;;;;10.32;4.15;;;21.80;93.80;;;;;;5017721;28;20045;-74
2022/05/14 07:11:40;;;;;;;9.40;3.70;;;21.90;93.60;;;;;;5047916;28;20034;-74
2022/05/14 07:14:06;;;;;;;16.33;4.13;;;21.90;93.60;;;;;;5002952;28;20044;-74
2022/05/14 07:16:33;;;;;;;11.65;4.13;;;22.00;93.60;;;;;;5018753;28;20045;-74
2022/05/14 07:19:00;;;;;;;9.88;4.10;;;22.10;93.60;;;;;;5048689;28;20049;-79
2022/05/14 07:21:26;;;;;;;17.58;4.82;;;22.10;93.20;;;;;;5024218;28;20041;-73
2022/05/14 07:23:53;;;;;;;13.82;5.72;;;22.10;94.00;;;;;;5020616;28;20401;-74
2022/05/14 07:26:19;;;;;;;14.60;7.20;;;22.20;94.40;;;;;;5051593;28;20382;-74
2022/05/14 07:28:45;;;;;;;12.75;6.70;;;22.00;94.90;;;;;;5054889;28;20030;-73
2022/05/14 07:31:12;;;;;;;14.30;6.53;;;22.10;95.00;;;;;;5022797;28;20054;-76
2022/05/14 07:33:38;;;;;;;13.07;7.00;;;22.10;95.00;;;;;;5017645;28;20025;-73
2022/05/14 07:36:17;;;;;;;15.32;7.05;;;22.20;94.90;;;;;;5045316;28;20189;-74
2022/05/14 07:38:43;;;;;;;16.55;7.88;;;22.20;95.00;;;;;;5021272;28;20095;-73
2022/05/14 07:41:12;;;;;;;23.42;9.07;;;22.20;95.30;;;;;;5011522;28;20038;-74
2022/05/14 07:43:42;;;;;;;13.02;7.47;;;22.30;95.30;;;;;;5047858;28;20041;-74
2022/05/14 07:46:14;;;;;;;18.10;7.70;;;22.30;94.90;;;;;;5016988;28;20060;-74
2022/05/14 07:48:41;;;;;;;14.77;6.63;;;22.30;94.80;;;;;;5051097;28;20045;-74
2022/05/14 07:51:10;;;;;;;14.40;5.72;;;22.40;94.50;;;;;;5007771;28;20030;-74
2022/05/14 07:53:36;;;;;;;11.75;4.97;;;22.50;94.10;;;;;;5022363;28;20041;-74
2022/05/14 07:56:05;;;;;;;14.57;4.10;;;22.60;93.90;;;;;;5050141;28;20076;-74
2022/05/14 07:58:32;;;;;;;14.20;4.20;;;22.60;93.10;;;;;;5022089;28;20030;-74
2022/05/14 08:01:00;;;;;;;15.00;4.03;;;22.50;92.40;;;;;;5018009;28;20029;-73
2022/05/14 08:03:28;;;;;;;9.07;3.35;;;22.60;92.50;;;;;;5017710;28;20041;-73
2022/05/14 08:05:56;;;;;;;7.47;3.10;;;22.70;92.10;;;;;;5020713;28;20204;-74
2022/05/14 08:08:23;;;;;;;13.63;3.00;;;22.70;91.50;;;;;;5024618;28;20038;-74
2022/05/14 08:10:51;;;;;;;10.50;3.20;;;22.90;91.20;;;;;;5056049;28;20038;-75
2022/05/14 08:13:18;;;;;;;10.10;3.55;;;22.90;90.30;;;;;;5019634;28;20473;-74
2022/05/14 08:15:46;;;;;;;22.48;5.22;;;23.00;90.50;;;;;;5049046;28;20521;-73
2022/05/14 08:18:12;;;;;;;11.32;3.83;;;23.10;90.60;;;;;;5023254;28;20052;-76
2022/05/14 08:20:40;;;;;;;12.20;3.40;;;23.30;90.50;;;;;;5020495;28;20054;-74
2022/05/14 08:25:53;;;;;;;16.50;3.50;;;23.60;89.60;;;;;;5022641;28;20080;-73
2022/05/14 08:28:20;;;;;;;10.98;3.15;;;23.70;89.50;;;;;;5016619;28;20404;-76
2022/05/14 08:30:47;;;;;;;12.90;3.38;;;23.90;89.60;;;;;;5007261;28;20555;-73
2022/05/14 08:33:13;;;;;;;11.65;2.88;;;24.00;89.20;;;;;;5016544;28;20102;-74
2022/05/14 08:35:39;;;;;;;10.25;3.35;;;24.00;88.70;;;;;;5031055;28;20073;-74
2022/05/14 08:38:08;;;;;;;12.25;3.15;;;24.20;88.40;;;;;;5035012;28;20037;-74
2022/05/14 08:40:57;;;;;;;9.98;3.10;;;24.20;87.70;;;;;;5053738;28;20531;-75
2022/05/14 08:43:25;;;;;;;9.13;2.88;;;24.20;87.90;;;;;;5008361;28;20038;-75
2022/05/14 08:45:53;;;;;;;10.23;2.97;;;24.20;86.80;;;;;;5052513;28;20037;-74
2022/05/14 08:48:34;;;;;;;11.52;3.38;;;24.40;87.30;;;;;;5055491;28;20043;-74
2022/05/14 08:51:21;;;;;;;11.00;3.65;;;24.30;88.00;;;;;;5024089;28;20065;-73
2022/05/14 08:53:49;;;;;;;11.25;3.42;;;24.30;87.90;;;;;;5019356;28;20037;-75
2022/05/14 08:56:20;;;;;;;12.55;3.95;;;24.20;88.20;;;;;;5022554;28;20049;-73
2022/05/14 08:59:23;;;;;;;10.15;3.35;;;24.30;88.60;;;;;;5038744;28;20036;-74
2022/05/14 09:01:51;;;;;;;11.77;3.40;;;24.50;88.90;;;;;;5025362;28;20033;-75
2022/05/14 09:04:20;;;;;;;11.40;3.88;;;24.60;88.20;;;;;;5022427;28;20109;-74
2022/05/14 09:06:47;;;;;;;10.27;3.38;;;24.90;88.10;;;;;;5031158;28;20085;-74
2022/05/14 09:09:14;;;;;;;11.98;3.30;;;24.80;86.70;;;;;;5050572;28;20129;-76
2022/05/14 09:11:52;;;;;;;8.38;3.20;;;24.60;86.90;;;;;;5053254;28;20485;-76
2022/05/14 09:14:24;;;;;;;10.43;3.45;;;24.60;86.70;;;;;;5025706;28;20080;-75
2022/05/14 09:16:58;;;;;;;;;;;24.90;87.00;;;;;;5015571;28;20064;-75
2022/05/14 09:19:32;;;;;;;14.70;3.38;;;25.10;85.90;;;;;;5030582;28;19921;-75
2022/05/14 09:22:07;;;;;;;16.48;3.63;;;25.30;85.80;;;;;;5012691;28;20057;-76
2022/05/14 09:24:43;;;;;;;8.45;3.40;;;25.40;86.10;;;;;;5005406;28;20093;-74
2022/05/14 09:27:26;;;;;;;8.48;3.67;;;25.40;85.80;;;;;;5013217;28;20041;-75
2022/05/14 09:29:55;;;;;;;15.77;3.40;;;25.40;85.80;;;;;;5030580;28;20098;-76
2022/05/14 09:32:21;;;;;;;15.82;3.58;;;25.60;85.80;;;;;;5022264;28;20037;-76
2022/05/14 09:34:49;;;;;;;8.68;3.15;;;25.50;85.80;;;;;;5003621;28;20030;-75
2022/05/14 09:37:21;;;;;;;13.70;3.55;;;25.80;85.30;;;;;;5022241;28;20563;-73
2022/05/14 09:39:57;;;;;;;;;;;25.60;85.20;;;;;;5057873;28;20048;-73
2022/05/14 09:42:26;;;;;;;13.93;3.20;;;25.80;85.40;;;;;;5019949;28;19937;-76
2022/05/14 09:44:57;;;;;;;11.23;3.20;;;25.90;84.60;;;;;;5004555;28;20037;-76
2022/05/14 09:47:31;;;;;;;10.98;3.28;;;26.00;84.40;;;;;;5020603;28;20047;-75
2022/05/14 09:50:07;;;;;;;11.30;3.00;;;26.10;84.30;;;;;;5053367;28;20045;-75
2022/05/14 09:52:36;;;;;;;12.43;3.13;;;26.00;83.00;;;;;;5016383;28;20041;-78
2022/05/14 09:55:08;;;;;;;9.85;3.08;;;25.90;82.10;;;;;;5040743;28;20050;-75
2022/05/14 09:57:58;;;;;;;10.00;2.55;;;25.90;82.20;;;;;;5052141;28;20041;-75
2022/05/14 10:00:39;;;;;;;10.23;2.65;;;26.10;81.50;;;;;;5051124;28;20508;-75
2022/05/14 10:03:40;;;;;;;13.50;4.40;;;26.50;84.00;;;;;;5004573;28;20041;-77
2022/05/14 10:06:23;;;;;;;12.95;3.78;;;26.90;87.80;;;;;;5015721;28;20514;-77
2022/05/14 10:09:18;;;;;;;13.18;3.97;;;26.90;90.30;;;;;;5017704;28;20232;-78
2022/05/14 10:11:49;;;;;;;13.82;4.10;;;26.50;90.00;;;;;;5036050;28;20030;-79
2022/05/14 10:14:34;;;;;;;14.25;3.55;;;26.70;90.00;;;;;;5043739;28;20109;-78
2022/05/14 10:17:25;;;;;;;12.88;3.33;;;26.10;88.20;;;;;;5044601;28;20042;-78
2022/05/14 10:20:04;;;;;;;10.85;3.13;;;26.30;88.20;;;;;;5013625;28;20045;-78
2022/05/14 10:28:45;;;;;;;9.55;2.50;;;26.10;86.20;;;;;;5013773;28;20053;-78
2022/05/14 10:31:30;;;;;;;7.07;2.95;;;26.10;85.40;;;;;;5042316;28;20042;-78
2022/05/14 10:34:01;;;;;;;8.90;2.38;;;26.20;85.80;;;;;;5049884;28;20065;-78
2022/05/14 10:36:36;;;;;;;8.53;2.67;;;26.00;85.20;;;;;;5011551;28;20042;-79
2022/05/14 10:39:17;;;;;;;9.73;2.50;;;26.00;85.00;;;;;;5014676;28;20223;-78
2022/05/14 10:41:46;;;;;;;9.80;3.10;;;26.20;85.30;;;;;;5015118;28;20145;-78
2022/05/14 10:44:25;;;;;;;10.98;2.60;;;26.30;85.30;;;;;;5043015;28;20408;-77
2022/05/14 10:46:52;;;;;;;10.65;3.22;;;26.00;84.90;;;;;;5048906;28;20073;-78
2022/05/14 10:49:28;;;;;;;9.35;2.72;;;26.20;84.70;;;;;;5011795;28;20120;-78
2022/05/14 10:51:55;;;;;;;9.93;2.53;;;26.50;84.20;;;;;;5049309;28;20137;-78
2022/05/14 10:54:24;;;;;;;7.72;2.38;;;26.30;83.50;;;;;;5014918;28;20123;-78
2022/05/14 10:57:13;;;;;;;10.25;2.72;;;26.40;82.70;;;;;;5048276;28;20615;-76
2022/05/14 10:59:42;;;;;;;11.93;3.90;;;26.20;84.20;;;;;;5031460;28;20057;-80
2022/05/14 11:02:15;;;;;;;12.18;3.00;;;25.90;85.20;;;;;;5033759;28;20085;-79
2022/05/14 11:04:42;;;;;;;9.40;2.45;;;25.80;85.60;;;;;;5047136;28;20062;-78
2022/05/14 11:07:11;;;;;;;7.43;2.42;;;25.90;85.80;;;;;;5048360;28;20068;-78
2022/05/14 11:09:43;;;;;;;9.07;3.00;;;26.20;85.00;;;;;;5018126;28;20044;-80
2022/05/14 11:12:21;;;;;;;9.55;2.78;;;26.60;85.30;;;;;;5053595;28;20073;-79
2022/05/14 11:14:53;;;;;;;7.70;2.38;;;26.60;84.40;;;;;;5016841;28;20064;-76
2022/05/14 11:17:29;;;;;;;8.55;2.83;;;26.70;85.00;;;;;;5025050;28;20397;-77
2022/05/14 11:20:05;;;;;;;14.00;3.15;;;27.00;85.40;;;;;;5052395;28;20087;-78
2022/05/14 11:22:39;;;;;;;8.82;3.05;;;27.00;85.00;;;;;;5026667;28;20054;-80
2022/05/14 11:25:22;;;;;;;9.35;3.13;;;27.10;84.90;;;;;;5047686;28;20121;-78
2022/05/14 11:27:57;;;;;;;9.63;3.42;;;26.90;84.70;;;;;;5047304;28;20605;-77
2022/05/14 11:30:55;;;;;;;9.82;3.22;;;26.20;85.40;;;;;;5014643;28;20124;-77
2022/05/14 11:33:27;;;;;;;10.10;3.10;;;26.70;85.40;;;;;;5016862;28;20037;-78
2022/05/14 11:36:00;;;;;;;8.45;3.08;;;26.90;85.20;;;;;;5034756;28;20076;-80
2022/05/14 11:38:27;;;;;;;9.13;2.50;;;26.80;85.50;;;;;;5047948;28;20386;-77
2022/05/14 11:40:59;;;;;;;9.20;2.72;;;27.00;82.50;;;;;;5052623;28;20033;-82
2022/05/14 11:43:33;;;;;;;10.85;2.70;;;26.70;82.70;;;;;;5012628;28;20397;-78
2022/05/14 11:46:23;;;;;;;8.93;2.92;;;27.10;82.70;;;;;;5018341;28;20092;-80
2022/05/14 11:49:03;;;;;;;7.47;2.38;;;26.90;83.40;;;;;;5050320;28;20041;-79
2022/05/14 11:51:51;;;;;;;7.68;2.20;;;27.20;83.00;;;;;;5018204;28;20067;-78
2022/05/14 11:54:26;;;;;;;8.27;2.70;;;27.50;80.40;;;;;;5020509;28;20038;-78
2022/05/14 11:57:23;;;;;;;8.48;3.03;;;26.80;82.80;;;;;;5030723;28;20050;-78
2022/05/14 11:59:56;;;;;;;9.18;2.50;;;27.80;81.80;;;;;;5033870;28;20048;-79
2022/05/14 12:02:37;;;;;;;7.15;2.33;;;28.00;81.00;;;;;;5046170;28;20123;-77
2022/05/14 12:05:07;;;;;;;7.15;2.28;;;27.90;80.30;;;;;;5043402;28;20046;-79
2022/05/14 12:07:47;;;;;;;7.88;2.60;;;28.00;81.20;;;;;;5044231;28;20050;-77
2022/05/14 12:10:36;;;;;;;7.90;2.78;;;28.10;82.10;;;;;;5014234;28;20377;-78
2022/05/14 12:13:09;;;;;;;8.30;2.40;;;28.80;80.10;;;;;;5059073;28;20480;-76
2022/05/14 12:15:44;;;;;;;7.53;2.25;;;28.60;76.90;;;;;;5025847;28;20095;-76
2022/05/14 12:18:11;;;;;;;9.38;3.13;;;29.20;78.80;;;;;;5016332;28;20056;-79
2022/05/14 12:20:43;;;;;;;5.38;1.95;;;29.10;79.50;;;;;;5019872;28;20161;-78
2022/05/14 12:23:17;;;;;;;;;;;28.60;78.50;;;;;;5022976;28;20037;-77
2022/05/14 12:25:49;;;;;;;9.65;2.58;;;28.80;79.50;;;;;;5023822;28;20466;-78
2022/05/14 12:28:24;;;;;;;7.55;2.80;;;29.50;77.90;;;;;;5014091;28;20480;-74
2022/05/14 12:34:02;;;;;;;10.43;2.90;;;29.70;79.20;;;;;;5019305;28;20045;-78
2022/05/14 12:36:34;;;;;;;5.93;2.53;;;29.90;78.10;;;;;;5020411;28;20056;-76
2022/05/14 12:39:03;;;;;;;;;;;29.80;76.50;;;;;;5015560;28;20042;-78
2022/05/14 12:41:40;;;;;;;8.40;2.92;;;29.60;78.30;;;;;;5042278;28;19913;-78
2022/05/14 12:44:21;;;;;;;11.27;2.95;;;29.60;76.60;;;;;;5019674;28;20386;-75
2022/05/14 12:46:54;;;;;;;5.60;2.70;;;28.90;78.80;;;;;;5049136;28;20068;-82
2022/05/14 12:49:30;;;;;;;10.63;2.85;;;29.00;78.60;;;;;;5020956;28;20029;-77
2022/05/14 12:52:09;;;;;;;8.98;3.35;;;29.30;78.40;;;;;;5055182;28;20030;-79
2022/05/14 12:54:41;;;;;;;7.85;2.65;;;29.40;78.90;;;;;;5019233;28;20061;-81
2022/05/14 12:57:10;;;;;;;8.98;3.30;;;28.50;78.10;;;;;;5021251;28;20049;-80
2022/05/14 12:59:36;;;;;;;10.25;2.80;;;28.70;79.80;;;;;;5046254;28;20056;-79
2022/05/14 13:02:22;;;;;;;8.75;2.85;;;28.80;77.80;;;;;;5056425;28;20568;-79
2022/05/14 13:04:55;;;;;;;5.88;2.40;;;29.00;77.80;;;;;;5020960;28;20080;-80
2022/05/14 13:07:41;;;;;;;15.55;2.55;;;29.30;75.80;;;;;;5021276;28;20038;-79
2022/05/14 13:10:08;;;;;;;9.05;2.90;;;29.60;74.50;;;;;;5011217;28;20113;-77
2022/05/14 13:12:36;;;;;;;6.22;2.30;;;29.20;74.60;;;;;;5015677;28;20064;-78
2022/05/14 13:15:06;;;;;;;8.45;2.83;;;28.70;74.60;;;;;;5052974;28;20112;-77
2022/05/14 13:17:36;;;;;;;5.90;2.15;;;29.00;75.10;;;;;;5017181;28;20123;-78
2022/05/14 13:20:14;;;;;;;5.72;2.10;;;29.10;75.40;;;;;;5048114;28;20042;-79
2022/05/14 13:22:42;;;;;;;6.10;2.30;;;28.40;76.00;;;;;;5019960;28;20045;-78
2022/05/14 13:25:35;;;;;;;5.95;2.33;;;29.30;75.20;;;;;;5022771;28;20393;-80